Time;durP1;ratioP1;P1;durP2;ratioP2;P2;SDS_P1;SDS_P2;PMS_P1;PMS_P2;Temp;Humidity;BMP_temperature;BMP_pressure;BME280_temperature;BME280_humidity;BME280_pressure;Samples;Min_cycle;Max_cycle;Signal;HPM_P1;HPM_P2
2022/10/12 00:02:23;;;;;;;10.20;5.50;;;9.80;99.90;;;;;;5029563;28;20045;-77
2022/10/12 00:04:50;;;;;;;19.58;5.72;;;9.80;99.90;;;;;;5029852;28;20056;-78
2022/10/12 00:07:18;;;;;;;12.52;4.35;;;9.80;99.90;;;;;;5030547;28;20041;-78
2022/10/12 00:09:47;;;;;;;19.60;5.60;;;9.70;99.90;;;;;;5030238;28;20053;-77
2022/10/12 00:12:15;;;;;;;13.35;4.13;;;9.60;99.90;;;;;;5028591;28;20091;-77
2022/10/12 00:14:42;;;;;;;15.48;4.63;;;9.50;99.90;;;;;;5029387;28;20049;-78
2022/10/12 00:17:10;;;;;;;12.00;4.78;;;9.30;99.90;;;;;;5028017;28;20592;-77
2022/10/12 00:19:37;;;;;;;15.77;5.18;;;9.30;99.90;;;;;;5029103;28;20053;-78
2022/10/12 00:22:05;;;;;;;13.75;5.13;;;9.20;99.90;;;;;;5030730;28;20171;-76
2022/10/12 00:24:32;;;;;;;12.23;4.90;;;9.30;99.90;;;;;;5045448;28;20054;-77
2022/10/12 00:27:02;;;;;;;20.05;4.95;;;9.30;99.90;;;;;;5030356;28;20071;-78
2022/10/12 00:29:29;;;;;;;18.33;5.55;;;9.40;99.90;;;;;;5028680;28;20144;-77
2022/10/12 00:31:57;;;;;;;10.02;5.05;;;9.40;99.90;;;;;;5030362;28;20061;-78
2022/10/12 00:34:24;;;;;;;13.10;4.82;;;9.50;99.90;;;;;;5030253;28;20045;-77
2022/10/12 00:36:51;;;;;;;13.20;4.57;;;9.60;99.90;;;;;;5024976;28;20417;-77
2022/10/12 00:39:19;;;;;;;13.98;4.72;;;9.60;99.90;;;;;;5025962;28;20108;-77
2022/10/12 00:41:46;;;;;;;13.05;4.60;;;9.60;99.90;;;;;;5020821;28;20045;-77
2022/10/12 00:44:39;;;;;;;16.63;5.38;;;9.60;99.90;;;;;;5030681;28;20108;-77
2022/10/12 00:47:18;;;;;;;18.83;5.00;;;9.70;99.90;;;;;;5028204;28;20049;-77
2022/10/12 00:49:50;;;;;;;12.30;4.53;;;9.70;99.90;;;;;;5029168;28;20095;-76
2022/10/12 00:52:22;;;;;;;13.60;4.57;;;9.70;99.90;;;;;;5028856;28;20527;-76
2022/10/12 00:54:53;;;;;;;14.57;4.30;;;9.70;99.90;;;;;;5028923;28;20046;-77
2022/10/12 00:57:21;;;;;;;13.43;4.53;;;9.60;99.90;;;;;;5029177;28;20203;-77
2022/10/12 00:59:54;;;;;;;14.25;4.35;;;9.70;99.90;;;;;;5029501;28;20045;-78
2022/10/12 01:02:23;;;;;;;16.08;4.68;;;9.70;99.90;;;;;;5029036;28;20111;-77
2022/10/12 01:04:51;;;;;;;20.58;4.65;;;9.70;99.90;;;;;;5044206;28;20095;-77
2022/10/12 01:07:19;;;;;;;26.65;6.30;;;9.70;99.90;;;;;;5029372;28;20460;-78
2022/10/12 01:09:47;;;;;;;19.75;6.15;;;9.70;99.90;;;;;;5027689;28;20049;-77
2022/10/12 01:12:16;;;;;;;24.25;6.40;;;9.70;99.90;;;;;;5030038;28;20084;-78
2022/10/12 01:14:44;;;;;;;12.60;5.50;;;9.70;99.90;;;;;;5010403;28;20053;-77
2022/10/12 01:17:28;;;;;;;15.27;6.60;;;9.80;99.90;;;;;;5029857;28;20509;-78
2022/10/12 01:20:34;;;;;;;17.00;5.65;;;9.80;99.90;;;;;;5027507;28;20041;-78
2022/10/12 01:23:53;;;;;;;17.35;6.38;;;9.80;99.90;;;;;;5011869;28;20473;-77
2022/10/12 01:27:03;;;;;;;12.90;5.80;;;9.80;99.90;;;;;;4995587;28;20069;-77
2022/10/12 01:30:06;;;;;;;12.73;5.32;;;9.80;99.90;;;;;;5030410;28;20079;-77
2022/10/12 01:32:50;;;;;;;17.27;5.68;;;9.80;99.90;;;;;;5030113;28;20049;-78
2022/10/12 01:35:25;;;;;;;23.67;6.00;;;9.70;99.90;;;;;;5040463;28;20053;-77
2022/10/12 01:38:03;;;;;;;17.70;5.30;;;9.70;99.90;;;;;;5028179;28;20080;-76
2022/10/12 01:40:38;;;;;;;13.93;4.90;;;9.60;99.90;;;;;;5032113;28;20053;-77
2022/10/12 01:43:07;;;;;;;14.77;5.22;;;9.50;99.90;;;;;;5032134;28;20563;-77
2022/10/12 01:45:36;;;;;;;20.15;6.18;;;9.50;99.90;;;;;;5033681;28;20056;-77
2022/10/12 01:48:06;;;;;;;14.48;4.85;;;9.50;99.90;;;;;;5032028;28;20137;-77
2022/10/12 01:50:43;;;;;;;15.65;5.63;;;9.50;99.90;;;;;;5014545;28;20064;-78
2022/10/12 01:53:24;;;;;;;21.55;6.45;;;9.50;99.90;;;;;;5031942;28;20053;-79
2022/10/12 01:55:58;;;;;;;17.08;6.55;;;9.50;99.90;;;;;;5032194;28;20042;-79
2022/10/12 01:58:47;;;;;;;23.70;5.68;;;9.50;99.90;;;;;;5031041;28;20083;-79
2022/10/12 02:01:28;;;;;;;11.55;5.40;;;9.50;99.90;;;;;;5021732;28;20403;-78
2022/10/12 02:04:09;;;;;;;21.98;6.43;;;9.50;99.90;;;;;;5032428;28;20140;-78
2022/10/12 02:06:43;;;;;;;16.15;5.88;;;9.60;99.90;;;;;;5024114;28;20518;-77
2022/10/12 02:09:19;;;;;;;19.67;6.70;;;9.60;99.90;;;;;;5031842;28;20061;-77
2022/10/12 02:11:50;;;;;;;21.73;5.75;;;9.60;99.90;;;;;;5031592;28;20095;-77
2022/10/12 02:14:22;;;;;;;12.40;4.85;;;9.60;99.90;;;;;;5031039;28;20053;-78
2022/10/12 02:16:55;;;;;;;14.18;5.80;;;9.60;99.90;;;;;;5026321;28;20569;-78
2022/10/12 02:19:27;;;;;;;16.35;5.60;;;9.60;99.90;;;;;;5031654;28;20494;-77
2022/10/12 02:22:16;;;;;;;10.10;4.55;;;9.60;99.90;;;;;;5031175;28;20410;-78
2022/10/12 02:24:47;;;;;;;13.13;4.57;;;9.70;99.90;;;;;;5007843;28;20056;-78
2022/10/12 02:27:18;;;;;;;11.82;4.85;;;9.70;99.90;;;;;;5031318;28;20053;-78
2022/10/12 02:29:48;;;;;;;11.75;4.53;;;9.70;99.90;;;;;;5029743;28;20061;-77
2022/10/12 02:32:25;;;;;;;13.02;4.40;;;9.70;99.90;;;;;;5032160;28;20428;-78
2022/10/12 02:34:59;;;;;;;16.33;5.85;;;9.70;99.90;;;;;;5027932;28;20046;-77
2022/10/12 02:37:36;;;;;;;11.38;4.20;;;9.70;99.90;;;;;;5012267;28;20046;-77
2022/10/12 02:40:11;;;;;;;12.40;4.40;;;9.70;99.90;;;;;;5031717;28;20052;-77
2022/10/12 02:42:47;;;;;;;12.00;3.90;;;9.70;99.90;;;;;;5027170;28;20053;-77
2022/10/12 02:45:16;;;;;;;8.25;3.30;;;9.80;99.90;;;;;;5029405;28;20057;-77
2022/10/12 02:47:47;;;;;;;15.00;3.88;;;9.80;99.90;;;;;;5032691;28;20067;-77
2022/10/12 02:50:17;;;;;;;6.53;3.15;;;9.80;99.90;;;;;;5032076;28;20057;-77
2022/10/12 02:52:45;;;;;;;7.88;2.90;;;9.80;99.90;;;;;;5020945;28;20072;-76
2022/10/12 02:55:12;;;;;;;6.25;3.00;;;9.80;99.90;;;;;;5030676;28;20048;-77
2022/10/12 02:57:40;;;;;;;12.45;3.20;;;9.70;99.90;;;;;;5031261;28;20050;-77
2022/10/12 03:00:09;;;;;;;10.60;3.50;;;9.80;99.90;;;;;;5031400;28;20045;-77
2022/10/12 03:02:37;;;;;;;12.05;3.38;;;9.80;99.90;;;;;;5026894;28;20470;-76
2022/10/12 03:05:07;;;;;;;13.98;3.75;;;9.80;99.90;;;;;;5027138;28;20509;-77
2022/10/12 03:07:35;;;;;;;10.88;3.55;;;9.80;99.90;;;;;;5031545;28;20053;-77
2022/10/12 03:10:02;;;;;;;9.95;3.90;;;9.70;99.90;;;;;;5031399;28;20041;-77
2022/10/12 03:12:31;;;;;;;12.10;3.30;;;9.60;99.90;;;;;;5028616;28;20061;-78
2022/10/12 03:14:58;;;;;;;6.38;3.38;;;9.60;99.90;;;;;;5030065;28;20130;-78
2022/10/12 03:17:26;;;;;;;8.90;4.07;;;9.60;99.90;;;;;;5029945;28;20053;-78
2022/10/12 03:19:53;;;;;;;10.82;3.38;;;9.60;99.90;;;;;;5011537;28;20061;-78
2022/10/12 03:22:22;;;;;;;7.88;2.67;;;9.50;99.90;;;;;;5030016;28;20056;-78
2022/10/12 03:24:50;;;;;;;8.45;3.22;;;9.50;99.90;;;;;;5028884;28;20045;-78
2022/10/12 03:27:18;;;;;;;6.85;2.97;;;9.40;99.90;;;;;;5031596;28;20046;-78
2022/10/12 03:29:45;;;;;;;6.22;2.88;;;9.40;99.90;;;;;;5028133;28;20517;-78
2022/10/12 03:32:14;;;;;;;5.43;3.05;;;9.40;99.90;;;;;;5030919;28;20049;-81
2022/10/12 03:34:42;;;;;;;11.40;3.25;;;9.40;99.90;;;;;;5027940;28;20049;-80
2022/10/12 03:37:09;;;;;;;6.18;2.67;;;9.40;99.90;;;;;;5031747;28;20049;-77
2022/10/12 03:39:38;;;;;;;7.45;3.83;;;9.30;99.90;;;;;;5010782;28;20042;-77
2022/10/12 03:42:06;;;;;;;7.30;3.00;;;9.30;99.90;;;;;;5031042;28;20069;-76
2022/10/12 03:44:33;;;;;;;9.50;3.08;;;9.20;99.90;;;;;;5028891;28;20144;-78
2022/10/12 03:47:01;;;;;;;7.72;3.10;;;9.10;99.90;;;;;;5029753;28;20054;-77
2022/10/12 03:49:28;;;;;;;9.93;3.50;;;9.10;99.90;;;;;;5029408;28;20103;-77
2022/10/12 03:51:56;;;;;;;8.30;3.97;;;9.00;99.90;;;;;;5029645;28;20057;-77
2022/10/12 03:54:23;;;;;;;7.80;3.03;;;8.90;99.90;;;;;;5028853;28;20107;-77
2022/10/12 03:56:52;;;;;;;12.30;4.85;;;8.90;99.90;;;;;;5027513;28;20041;-79
2022/10/12 03:59:19;;;;;;;6.75;2.60;;;8.90;99.90;;;;;;5031688;28;20060;-79
2022/10/12 04:01:47;;;;;;;15.88;3.50;;;8.90;99.90;;;;;;5029372;28;20104;-79
2022/10/12 04:04:15;;;;;;;6.63;3.10;;;8.90;99.90;;;;;;5034475;28;20103;-79
2022/10/12 04:06:42;;;;;;;6.10;3.42;;;8.90;99.90;;;;;;5025549;28;20049;-79
2022/10/12 04:09:10;;;;;;;12.13;3.83;;;9.00;99.90;;;;;;5022216;28;20394;-78
2022/10/12 04:11:38;;;;;;;7.60;3.05;;;9.00;99.90;;;;;;5040190;28;20104;-78
2022/10/12 04:14:15;;;;;;;10.60;2.70;;;9.00;99.90;;;;;;5034781;28;20038;-81
2022/10/12 04:16:44;;;;;;;10.57;3.15;;;9.00;99.90;;;;;;5027436;28;20033;-84
2022/10/12 04:19:13;;;;;;;6.15;2.78;;;8.90;99.90;;;;;;5032942;28;20045;-78
2022/10/12 04:21:40;;;;;;;8.70;3.28;;;8.90;99.90;;;;;;5029049;28;20045;-80
2022/10/12 04:24:08;;;;;;;14.45;6.18;;;8.90;99.90;;;;;;5023760;28;20042;-79
2022/10/12 04:26:36;;;;;;;11.25;3.67;;;8.80;99.90;;;;;;5020700;28;20050;-79
2022/10/12 04:29:04;;;;;;;8.85;2.90;;;8.80;99.90;;;;;;5021408;28;20046;-78
2022/10/12 04:31:33;;;;;;;13.32;3.03;;;8.80;99.90;;;;;;5023201;28;20084;-78
2022/10/12 04:34:00;;;;;;;7.20;2.90;;;8.70;99.90;;;;;;5029153;28;20144;-77
2022/10/12 04:36:28;;;;;;;7.57;2.95;;;8.80;99.90;;;;;;5022600;28;20069;-78
2022/10/12 04:38:55;;;;;;;6.50;2.97;;;8.70;99.90;;;;;;5014320;28;20046;-78
2022/10/12 04:41:23;;;;;;;7.55;2.90;;;8.70;99.90;;;;;;5015740;28;20053;-78
2022/10/12 04:43:53;;;;;;;12.63;3.60;;;8.60;99.90;;;;;;5022682;28;20095;-79
2022/10/12 04:46:21;;;;;;;10.25;3.28;;;8.60;99.90;;;;;;5020156;28;20053;-80
2022/10/12 04:48:50;;;;;;;7.95;4.00;;;8.60;99.90;;;;;;5023314;28;20045;-75
2022/10/12 04:51:18;;;;;;;11.95;4.38;;;8.60;99.90;;;;;;5022807;28;20053;-75
2022/10/12 04:53:46;;;;;;;13.43;4.25;;;8.60;99.90;;;;;;5025136;28;20053;-76
2022/10/12 04:56:17;;;;;;;13.95;5.22;;;8.60;99.90;;;;;;5030277;28;20056;-78
2022/10/12 04:58:46;;;;;;;16.30;6.47;;;8.60;99.90;;;;;;5030125;28;20053;-79
2022/10/12 05:01:14;;;;;;;18.02;5.88;;;8.50;99.90;;;;;;5027223;28;20050;-79
2022/10/12 05:03:42;;;;;;;18.60;5.65;;;8.50;99.90;;;;;;5019184;28;20050;-80
2022/10/12 05:06:11;;;;;;;11.07;5.68;;;8.50;99.90;;;;;;5016423;28;20064;-83
2022/10/12 05:08:46;;;;;;;13.60;5.00;;;8.50;99.90;;;;;;5007048;28;20073;-86
2022/10/12 05:11:14;;;;;;;11.88;5.28;;;8.40;99.90;;;;;;5025449;28;20084;-84
2022/10/12 05:13:42;;;;;;;17.42;6.50;;;8.40;99.90;;;;;;5031279;28;20051;-83
2022/10/12 05:16:09;;;;;;;16.25;6.43;;;8.50;99.90;;;;;;5028011;28;20060;-85
2022/10/12 05:18:37;;;;;;;13.63;6.30;;;8.40;99.90;;;;;;5038772;28;20057;-84
2022/10/12 05:21:05;;;;;;;13.55;6.70;;;8.40;99.90;;;;;;5032491;28;20053;-80
2022/10/12 05:23:34;;;;;;;17.98;8.40;;;8.50;99.90;;;;;;5034500;28;20152;-80
2022/10/12 05:26:02;;;;;;;17.33;6.75;;;8.50;99.90;;;;;;5031667;28;20162;-80
2022/10/12 05:28:30;;;;;;;15.77;6.95;;;8.50;99.90;;;;;;5014069;28;20050;-82
2022/10/12 05:30:57;;;;;;;30.42;8.25;;;8.50;99.90;;;;;;5028142;28;20055;-80
2022/10/12 05:33:25;;;;;;;32.75;7.97;;;8.50;99.90;;;;;;5031849;28;20057;-80
2022/10/12 05:35:52;;;;;;;20.23;7.57;;;8.50;99.90;;;;;;5029713;28;20048;-81
2022/10/12 05:38:20;;;;;;;15.70;7.25;;;8.60;99.90;;;;;;5032744;28;20053;-80
2022/10/12 05:40:49;;;;;;;15.80;7.85;;;8.60;99.90;;;;;;5029070;28;20132;-83
2022/10/12 05:43:17;;;;;;;20.40;8.05;;;8.60;99.90;;;;;;5032128;28;20076;-80
2022/10/12 05:45:45;;;;;;;17.25;6.75;;;8.80;99.90;;;;;;5029765;28;20084;-81
2022/10/12 05:48:13;;;;;;;11.85;5.53;;;9.20;99.90;;;;;;5014341;28;20050;-81
2022/10/12 05:50:40;;;;;;;13.68;5.68;;;9.30;99.90;;;;;;5034316;28;20533;-83
2022/10/12 05:53:08;;;;;;;14.02;5.65;;;9.30;99.90;;;;;;5032962;28;20130;-79
2022/10/12 05:55:36;;;;;;;16.23;5.32;;;9.30;99.90;;;;;;5034048;28;20336;-81
2022/10/12 05:58:08;;;;;;;18.75;4.85;;;9.20;99.90;;;;;;5024662;28;20097;-81
2022/10/12 06:00:35;;;;;;;13.25;5.43;;;9.20;99.90;;;;;;5033405;28;20049;-81
2022/10/12 06:03:03;;;;;;;13.75;5.55;;;9.40;99.90;;;;;;5031899;28;20049;-82
2022/10/12 06:05:31;;;;;;;21.75;6.72;;;9.60;99.90;;;;;;5033866;28;20053;-82
2022/10/12 06:07:58;;;;;;;22.83;5.97;;;9.80;99.90;;;;;;5030703;28;20135;-80
2022/10/12 06:10:26;;;;;;;22.40;6.40;;;10.00;99.90;;;;;;5031284;28;20140;-82
2022/10/12 06:12:53;;;;;;;26.55;5.95;;;10.20;99.90;;;;;;5031314;28;20115;-81
2022/10/12 06:15:22;;;;;;;14.52;5.38;;;10.40;99.90;;;;;;5032166;28;20540;-79
2022/10/12 06:17:50;;;;;;;17.83;5.43;;;10.60;99.90;;;;;;5032775;28;20067;-81
2022/10/12 06:20:17;;;;;;;8.50;3.85;;;10.80;99.90;;;;;;5031846;28;20046;-81
2022/10/12 06:22:45;;;;;;;37.05;20.50;;;10.90;99.90;;;;;;5032370;28;20073;-80
2022/10/12 06:25:12;;;;;;;7.25;3.08;;;10.90;99.90;;;;;;5031839;28;20136;-80
2022/10/12 06:27:40;;;;;;;6.35;3.13;;;10.80;99.90;;;;;;5033147;28;20160;-81
2022/10/12 06:30:08;;;;;;;7.35;2.67;;;10.60;99.90;;;;;;5031558;28;20057;-82
2022/10/12 06:32:40;;;;;;;3.60;2.42;;;10.50;99.90;;;;;;5032167;28;20096;-82
2022/10/12 06:35:09;;;;;;;4.75;2.42;;;10.40;99.90;;;;;;5032511;28;20528;-83
2022/10/12 06:37:40;;;;;;;5.97;2.80;;;10.20;99.90;;;;;;5034622;28;20149;-82
2022/10/12 06:40:09;;;;;;;8.45;2.85;;;10.10;99.90;;;;;;5023336;28;20050;-82
2022/10/12 06:42:38;;;;;;;6.47;3.03;;;10.10;99.90;;;;;;5016001;28;20454;-82
2022/10/12 06:45:07;;;;;;;5.60;2.72;;;10.10;99.90;;;;;;5032365;28;20509;-83
2022/10/12 06:47:36;;;;;;;6.82;3.45;;;10.10;99.90;;;;;;5032491;28;20136;-82
2022/10/12 06:50:05;;;;;;;6.60;3.20;;;10.10;99.90;;;;;;5016167;28;20049;-82
2022/10/12 06:52:33;;;;;;;4.18;3.08;;;10.10;99.90;;;;;;5024791;28;20049;-82
2022/10/12 06:55:00;;;;;;;5.50;3.28;;;10.00;99.90;;;;;;5030554;28;20058;-82
2022/10/12 06:57:29;;;;;;;8.15;3.63;;;10.10;99.90;;;;;;5022705;28;20045;-82
2022/10/12 06:59:57;;;;;;;8.15;3.38;;;10.10;99.90;;;;;;5012454;28;20104;-80
2022/10/12 07:02:24;;;;;;;5.22;2.90;;;10.10;99.90;;;;;;5016622;28;20111;-82
2022/10/12 07:04:53;;;;;;;5.75;2.60;;;10.10;99.90;;;;;;5029437;28;20045;-83
2022/10/12 07:07:21;;;;;;;3.78;2.38;;;10.10;99.90;;;;;;5029726;28;20064;-83
2022/10/12 07:09:48;;;;;;;4.38;2.30;;;10.20;99.90;;;;;;5031268;28;20064;-81
2022/10/12 07:12:16;;;;;;;6.25;2.10;;;10.40;99.90;;;;;;5023228;28;20164;-83
2022/10/12 07:14:43;;;;;;;6.63;2.30;;;10.50;99.90;;;;;;5028008;28;20604;-83
2022/10/12 07:17:11;;;;;;;9.60;2.38;;;10.60;99.90;;;;;;5030862;28;20046;-85
2022/10/12 07:19:39;;;;;;;5.28;2.88;;;10.70;99.90;;;;;;5032477;28;20434;-81
2022/10/12 07:22:09;;;;;;;6.68;3.05;;;10.70;99.90;;;;;;5006217;28;20050;-82
2022/10/12 07:24:37;;;;;;;5.40;2.97;;;10.70;99.90;;;;;;5032296;28;20060;-83
2022/10/12 07:27:08;;;;;;;7.85;2.55;;;10.50;99.90;;;;;;5031405;28;20084;-82
2022/10/12 07:29:39;;;;;;;6.60;2.53;;;10.60;99.90;;;;;;5028281;28;20046;-82
2022/10/12 07:32:08;;;;;;;6.93;3.03;;;10.60;99.90;;;;;;5040709;28;20042;-81
2022/10/12 07:34:36;;;;;;;7.60;3.50;;;10.60;99.90;;;;;;5028581;28;20077;-83
2022/10/12 07:37:04;;;;;;;9.77;2.88;;;10.90;99.90;;;;;;5031696;28;20037;-84
2022/10/12 07:39:33;;;;;;;7.00;2.60;;;11.30;99.90;;;;;;5025638;28;20069;-82
2022/10/12 07:42:00;;;;;;;4.78;2.60;;;11.40;99.90;;;;;;5028742;28;20049;-82
2022/10/12 07:44:29;;;;;;;10.18;3.63;;;11.50;99.90;;;;;;5033763;28;20119;-82
2022/10/12 07:46:57;;;;;;;10.10;3.03;;;11.70;99.90;;;;;;5036184;28;20053;-83
2022/10/12 07:49:25;;;;;;;5.90;2.60;;;11.70;99.90;;;;;;5032090;28;20069;-82
2022/10/12 07:51:53;;;;;;;5.13;2.60;;;12.50;99.90;;;;;;5027653;28;20049;-81
2022/10/12 07:54:20;;;;;;;7.90;2.17;;;12.90;99.90;;;;;;5013421;28;20049;-82
2022/10/12 07:56:50;;;;;;;8.18;3.03;;;13.80;99.90;;;;;;5024536;28;20065;-81
2022/10/12 07:59:17;;;;;;;4.05;2.10;;;14.70;99.90;;;;;;5027156;28;20061;-81
2022/10/12 08:01:45;;;;;;;5.28;1.95;;;16.00;99.90;;;;;;5028441;28;20060;-80
2022/10/12 08:04:12;;;;;;;4.85;2.00;;;17.00;99.90;;;;;;5024531;28;20077;-83
2022/10/12 08:06:45;;;;;;;9.32;1.90;;;17.80;99.90;;;;;;5023132;28;20094;-82
2022/10/12 08:09:13;;;;;;;7.32;1.70;;;18.50;99.90;;;;;;5024961;28;20049;-83
2022/10/12 08:11:42;;;;;;;8.18;1.90;;;19.00;99.90;;;;;;5029413;28;20049;-86
2022/10/12 08:14:17;;;;;;;3.63;1.70;;;20.10;99.90;;;;;;5030315;28;20067;-83
2022/10/12 08:16:45;;;;;;;4.85;1.63;;;21.30;99.90;;;;;;5022882;28;20041;-83
2022/10/12 08:19:14;;;;;;;3.78;1.15;;;22.40;96.70;;;;;;5025812;28;20100;-83
2022/10/12 08:21:41;;;;;;;2.28;1.58;;;22.10;92.50;;;;;;5000576;28;20053;-83
2022/10/12 08:24:10;;;;;;;4.35;1.60;;;22.20;92.10;;;;;;5039161;28;20050;-84
2022/10/12 08:26:38;;;;;;;3.38;1.80;;;22.40;91.40;;;;;;5027891;28;20494;-85
2022/10/12 08:29:07;;;;;;;3.28;1.63;;;22.80;90.30;;;;;;5021178;28;20051;-81
2022/10/12 08:31:36;;;;;;;3.85;1.88;;;22.40;87.60;;;;;;5024213;28;20112;-83
2022/10/12 08:34:04;;;;;;;2.40;1.70;;;22.60;86.50;;;;;;5020202;28;20052;-84
2022/10/12 08:36:31;;;;;;;3.40;1.90;;;23.00;84.20;;;;;;5028003;28;20033;-83
2022/10/12 08:38:59;;;;;;;2.42;1.73;;;22.90;82.30;;;;;;5021655;28;20056;-83
2022/10/12 08:41:43;;;;;;;2.85;1.67;;;23.40;83.00;;;;;;5029699;28;20049;-84
2022/10/12 08:44:33;;;;;;;7.30;1.45;;;23.80;78.00;;;;;;5028297;28;20847;-81
2022/10/12 08:47:11;;;;;;;1.67;1.35;;;24.10;76.40;;;;;;5030342;28;20056;-83
2022/10/12 08:49:41;;;;;;;6.00;1.60;;;24.00;75.00;;;;;;5008090;28;20464;-83
2022/10/12 08:52:27;;;;;;;3.08;1.27;;;24.40;73.70;;;;;;5026087;28;20053;-80
2022/10/12 08:54:59;;;;;;;5.22;1.95;;;24.50;70.10;;;;;;5023299;28;20046;-80
2022/10/12 08:57:29;;;;;;;2.85;1.33;;;24.70;70.10;;;;;;5021315;28;20052;-80
2022/10/12 08:59:58;;;;;;;2.85;1.45;;;24.60;67.80;;;;;;5023419;28;20053;-81
2022/10/12 09:02:50;;;;;;;4.45;1.50;;;23.10;71.30;;;;;;5040154;28;20064;-80
2022/10/12 09:05:23;;;;;;;2.90;1.20;;;23.00;72.80;;;;;;5022172;28;20548;-81
2022/10/12 09:07:57;;;;;;;5.38;1.60;;;22.90;71.80;;;;;;5021563;28;20050;-81
2022/10/12 09:10:42;;;;;;;2.08;1.50;;;22.10;75.60;;;;;;5022284;28;20042;-81
2022/10/12 09:13:31;;;;;;;6.32;1.92;;;21.20;77.30;;;;;;5018931;28;20057;-80
2022/10/12 09:16:06;;;;;;;7.10;1.83;;;21.00;79.10;;;;;;5020615;28;20706;-80
2022/10/12 09:18:41;;;;;;;9.63;2.05;;;20.80;80.10;;;;;;4976661;28;20053;-80
2022/10/12 09:21:16;;;;;;;7.78;2.13;;;20.10;82.00;;;;;;5023554;28;20065;-80
2022/10/12 09:23:44;;;;;;;4.28;1.63;;;19.50;85.30;;;;;;5023678;28;20095;-79
2022/10/12 09:26:17;;;;;;;1.95;1.45;;;19.00;86.80;;;;;;5027398;28;20052;-80
2022/10/12 09:28:48;;;;;;;4.18;1.90;;;18.40;89.10;;;;;;5027122;28;20038;-79
2022/10/12 09:31:36;;;;;;;3.67;1.80;;;17.80;90.30;;;;;;5021820;28;20054;-82
2022/10/12 09:34:08;;;;;;;4.43;1.83;;;17.20;91.80;;;;;;5029716;28;20064;-80
2022/10/12 09:36:37;;;;;;;3.83;2.03;;;16.60;93.30;;;;;;5027476;28;20529;-82
2022/10/12 09:39:14;;;;;;;3.40;1.42;;;16.30;94.20;;;;;;5030204;28;20072;-83
2022/10/12 09:41:45;;;;;;;6.35;1.55;;;16.00;95.10;;;;;;5042248;28;20137;-81
2022/10/12 09:44:21;;;;;;;2.63;1.38;;;15.70;96.60;;;;;;5029085;28;20099;-81
2022/10/12 09:46:55;;;;;;;8.77;1.65;;;15.40;98.00;;;;;;5046005;28;20041;-83
2022/10/12 09:49:41;;;;;;;7.47;1.50;;;15.10;99.20;;;;;;5047873;28;20057;-83
2022/10/12 09:52:10;;;;;;;4.72;1.13;;;14.90;99.90;;;;;;5032292;28;20056;-82
2022/10/12 09:54:48;;;;;;;3.03;1.10;;;15.00;99.90;;;;;;5031172;28;20065;-83
2022/10/12 09:57:21;;;;;;;5.22;1.00;;;15.40;99.90;;;;;;5032041;28;20049;-83
2022/10/12 09:59:49;;;;;;;5.00;1.58;;;15.40;99.90;;;;;;5026129;28;20049;-86
2022/10/12 10:02:19;;;;;;;4.80;1.00;;;15.50;99.90;;;;;;5031455;28;20567;-85
2022/10/12 10:04:50;;;;;;;4.85;1.08;;;15.80;99.80;;;;;;5029763;28;20060;-83
2022/10/12 10:07:29;;;;;;;1.30;1.10;;;16.40;99.00;;;;;;5029800;28;20047;-85
2022/10/12 10:10:20;;;;;;;4.25;0.93;;;17.90;96.20;;;;;;5026372;28;20045;-81
2022/10/12 10:12:53;;;;;;;3.13;1.05;;;19.20;92.20;;;;;;5031225;28;20510;-80
2022/10/12 10:15:25;;;;;;;2.78;0.90;;;20.30;88.60;;;;;;5031138;28;20092;-84
2022/10/12 10:17:56;;;;;;;3.45;0.93;;;21.20;84.40;;;;;;5028166;28;20614;-81
2022/10/12 10:20:35;;;;;;;0.60;0.43;;;20.70;81.40;;;;;;5023546;28;20058;-79
2022/10/12 10:23:05;;;;;;;2.25;1.20;;;20.00;82.40;;;;;;5032229;28;20061;-81
2022/10/12 10:25:33;;;;;;;4.60;0.70;;;19.00;85.40;;;;;;5030827;28;20136;-80
2022/10/12 10:28:24;;;;;;;3.20;0.65;;;18.50;86.00;;;;;;5023950;28;20092;-83
2022/10/12 10:30:59;;;;;;;1.35;0.75;;;17.90;89.20;;;;;;5037479;28;20672;-81
2022/10/12 10:33:27;;;;;;;1.23;0.80;;;17.50;91.10;;;;;;5027750;28;20042;-82
2022/10/12 10:36:06;;;;;;;2.80;0.75;;;17.90;91.10;;;;;;5009395;28;20592;-82
2022/10/12 10:38:54;;;;;;;1.92;0.70;;;18.90;89.50;;;;;;5041934;28;20442;-81
2022/10/12 10:41:26;;;;;;;2.78;0.90;;;20.00;86.40;;;;;;5030200;28;20064;-81
2022/10/12 10:43:54;;;;;;;3.35;0.80;;;20.80;82.20;;;;;;5030633;28;20148;-81
2022/10/12 10:46:25;;;;;;;1.75;0.60;;;20.90;78.60;;;;;;5028262;28;20044;-82
2022/10/12 10:48:57;;;;;;;4.15;1.20;;;20.50;78.70;;;;;;5022772;28;20042;-79
2022/10/12 10:54:30;;;;;;;1.35;0.50;;;20.10;78.50;;;;;;5084025;27;20437;-81
2022/10/12 10:57:01;;;;;;;2.38;0.50;;;18.90;80.20;;;;;;5065789;28;20044;-79
2022/10/12 10:59:47;;;;;;;6.68;1.00;;;18.20;82.00;;;;;;5087317;28;20048;-80
2022/10/12 11:02:21;;;;;;;5.50;0.60;;;18.30;83.00;;;;;;5085677;28;20071;-81
2022/10/12 11:04:53;;;;;;;3.13;0.52;;;18.60;82.00;;;;;;5083529;28;20058;-80
2022/10/12 11:07:28;;;;;;;4.53;0.60;;;18.70;79.30;;;;;;5086838;28;20048;-81
2022/10/12 11:10:00;;;;;;;3.90;0.63;;;18.50;81.30;;;;;;5087938;28;20535;-81
2022/10/12 11:12:30;;;;;;;3.27;0.50;;;18.30;81.70;;;;;;5084706;28;20052;-79
2022/10/12 11:15:06;;;;;;;3.03;0.57;;;18.20;82.50;;;;;;5087144;28;20290;-84
2022/10/12 11:17:39;;;;;;;4.93;0.60;;;18.20;82.60;;;;;;5086591;28;20102;-81
2022/10/12 11:20:25;;;;;;;1.08;0.75;;;18.30;81.80;;;;;;5087268;28;20044;-77
2022/10/12 11:22:55;;;;;;;1.85;0.98;;;18.20;83.90;;;;;;5078339;28;20523;-82
2022/10/12 11:25:28;;;;;;;4.82;1.27;;;18.30;83.60;;;;;;5083361;28;20060;-80
2022/10/12 11:27:56;;;;;;;2.28;0.50;;;18.70;82.70;;;;;;5099610;28;20054;-81
2022/10/12 11:30:25;;;;;;;5.97;0.57;;;20.00;79.50;;;;;;5085158;28;20115;-80
2022/10/12 11:32:56;;;;;;;5.25;0.70;;;21.10;75.70;;;;;;5082290;28;20135;-81
2022/10/12 11:35:27;;;;;;;2.50;1.13;;;22.20;71.40;;;;;;5087530;28;20049;-80
2022/10/12 11:38:00;;;;;;;2.17;0.80;;;22.10;70.40;;;;;;5083130;28;20044;-80
2022/10/12 11:40:33;;;;;;;4.13;0.80;;;21.60;70.10;;;;;;5081808;28;20582;-81
2022/10/12 11:43:07;;;;;;;2.40;0.70;;;21.00;72.40;;;;;;5083727;28;20056;-82
2022/10/12 11:45:40;;;;;;;8.95;0.77;;;20.50;74.70;;;;;;5085032;28;20048;-79
2022/10/12 11:48:13;;;;;;;4.35;1.75;;;20.20;74.20;;;;;;5085941;28;20044;-81
2022/10/12 11:50:42;;;;;;;2.97;1.13;;;19.70;76.60;;;;;;5078160;28;20048;-81
2022/10/12 11:53:20;;;;;;;4.18;1.27;;;19.30;78.70;;;;;;5083294;28;20124;-82
2022/10/12 11:56:07;;;;;;;1.70;0.60;;;19.10;81.60;;;;;;5082796;28;20429;-81
2022/10/12 11:58:39;;;;;;;3.08;0.60;;;18.40;81.00;;;;;;5081303;28;20412;-81
2022/10/12 12:01:40;;;;;;;3.15;0.80;;;17.90;82.50;;;;;;5081260;28;20057;-82
2022/10/12 12:04:24;;;;;;;5.75;0.95;;;17.90;83.50;;;;;;5062665;28;20064;-79
2022/10/12 12:06:58;;;;;;;4.53;0.85;;;17.90;83.80;;;;;;5065253;28;20143;-79
2022/10/12 12:09:40;;;;;;;3.10;1.23;;;17.90;83.30;;;;;;5065073;28;20056;-78
2022/10/12 12:12:27;;;;;;;1.10;0.70;;;17.70;83.90;;;;;;5068393;28;20048;-80
2022/10/12 12:15:07;;;;;;;5.63;1.27;;;17.40;85.60;;;;;;5068683;28;20524;-80
2022/10/12 12:17:37;;;;;;;6.38;2.70;;;17.50;86.70;;;;;;5069731;28;20076;-80
2022/10/12 12:20:45;;;;;;;3.90;2.50;;;17.30;87.60;;;;;;5070697;28;20082;-81
2022/10/12 12:23:20;;;;;;;1.48;0.98;;;16.90;89.10;;;;;;5052286;28;20103;-81
2022/10/12 12:26:03;;;;;;;4.53;0.80;;;16.30;90.20;;;;;;5070400;28;20044;-81
2022/10/12 12:28:33;;;;;;;8.63;1.10;;;15.90;90.30;;;;;;5066842;28;20058;-82
2022/10/12 12:31:03;;;;;;;3.38;0.40;;;15.60;90.50;;;;;;5067134;28;20048;-82
2022/10/12 12:33:34;;;;;;;2.35;0.60;;;15.60;90.30;;;;;;5063577;28;20054;-80
2022/10/12 12:36:04;;;;;;;5.63;0.75;;;15.40;90.20;;;;;;5069833;28;20555;-79
2022/10/12 12:38:33;;;;;;;1.15;0.40;;;15.30;90.20;;;;;;5066963;28;20504;-81
2022/10/12 12:41:18;;;;;;;1.88;0.60;;;15.20;89.00;;;;;;5069372;28;20394;-82
2022/10/12 12:43:56;;;;;;;3.00;0.63;;;15.00;90.70;;;;;;5068820;28;20075;-82
2022/10/12 12:46:49;;;;;;;1.58;0.63;;;14.80;90.50;;;;;;5065352;28;20052;-82
2022/10/12 12:49:29;;;;;;;5.10;1.25;;;14.90;90.30;;;;;;5028748;28;20140;-83
2022/10/12 12:51:58;;;;;;;6.20;2.58;;;15.70;89.80;;;;;;5066084;28;20048;-83
2022/10/12 12:54:27;;;;;;;2.85;2.08;;;16.00;88.50;;;;;;5054317;28;20075;-78
2022/10/12 12:57:23;;;;;;;1.13;0.30;;;16.10;87.70;;;;;;5068036;28;20098;-78
2022/10/12 13:00:20;;;;;;;2.55;0.40;;;16.10;86.90;;;;;;5064866;28;20748;-78
2022/10/12 13:03:27;;;;;;;3.08;0.93;;;16.00;84.40;;;;;;5062830;28;20044;-76
2022/10/12 13:06:24;;;;;;;3.20;0.90;;;15.60;86.00;;;;;;5060820;28;20143;-80
2022/10/12 13:09:21;;;;;;;2.75;0.98;;;15.30;88.20;;;;;;5093780;28;20053;-79
2022/10/12 13:12:06;;;;;;;2.53;1.05;;;15.20;89.90;;;;;;5061044;28;20139;-76
2022/10/12 13:14:46;;;;;;;6.82;0.50;;;15.80;89.50;;;;;;5064093;28;20508;-80
2022/10/12 13:17:35;;;;;;;4.10;0.73;;;17.00;86.20;;;;;;5063194;28;20057;-83
2022/10/12 13:20:11;;;;;;;2.30;0.63;;;17.10;84.70;;;;;;5080805;28;20512;-83